Terminal Aerodrome Forecast
Issued by NWS

Home | Current Version | Previous Version | Text Only | Print | Product List | Glossary On
Versions: 1 2 3 4 5 6 7 8 9 10 11 12 13 14 15 16 17 18
625
FTUS41 KBGM 260535
TAFRME
TAF
KRME 260535Z 2606/2706 15005KT P6SM FEW200
     FM261800 14009G16KT P6SM BKN120
     FM270200 13008KT 4SM -SHRA OVC030
     FM270500 18005KT 2SM -SHRA BR OVC015=

USA.gov is the U.S. government's official web portal to all federal, state and local government web resources and services.